createdAt,value
2018-06-30T00:02:16.248Z,22.80
2018-06-30T00:04:50.961Z,22.80
2018-06-30T00:07:22.101Z,22.70
2018-06-30T00:09:51.992Z,22.70
2018-06-30T00:12:21.978Z,22.40
2018-06-30T00:14:51.773Z,22.10
2018-06-30T00:17:21.484Z,21.60
2018-06-30T00:19:51.225Z,21.50
2018-06-30T00:22:21.131Z,22.10
2018-06-30T00:24:50.876Z,22.30
2018-06-30T00:27:25.869Z,22.40
2018-06-30T00:29:55.958Z,22.10
2018-06-30T00:32:31.023Z,22.20
2018-06-30T00:35:15.321Z,22.10
2018-06-30T00:37:56.235Z,22.10
2018-06-30T00:40:32.195Z,22.10
2018-06-30T00:43:11.018Z,22.20
2018-06-30T00:45:54.718Z,22.20
2018-06-30T00:48:37.411Z,22.10
2018-06-30T00:51:19.094Z,22.00
2018-06-30T00:53:56.149Z,21.90
2018-06-30T00:56:35.182Z,21.90
2018-06-30T00:59:15.983Z,21.90
2018-06-30T01:01:51.524Z,21.70
2018-06-30T01:04:25.513Z,21.70
2018-06-30T01:07:02.169Z,21.60
2018-06-30T01:09:50.069Z,21.60
2018-06-30T01:12:29.996Z,21.50
2018-06-30T01:15:13.949Z,21.50
2018-06-30T01:17:52.484Z,21.40
2018-06-30T01:20:36.970Z,21.50
2018-06-30T01:23:21.301Z,21.70
2018-06-30T01:28:41.063Z,21.50
2018-06-30T01:31:18.280Z,21.30
2018-06-30T01:34:03.895Z,21.10
2018-06-30T01:36:49.110Z,21.30
2018-06-30T01:39:34.685Z,21.20
2018-06-30T01:42:08.649Z,20.90
2018-06-30T01:44:47.772Z,20.90
2018-06-30T01:47:27.982Z,21.10
2018-06-30T01:50:07.430Z,20.90
2018-06-30T01:52:46.117Z,20.80
2018-06-30T01:55:23.643Z,20.90
2018-06-30T01:58:00.335Z,20.60
2018-06-30T02:00:38.572Z,20.40
2018-06-30T02:03:20.283Z,20.60
2018-06-30T02:05:55.907Z,20.40
2018-06-30T02:08:31.299Z,20.40
2018-06-30T02:11:08.581Z,20.60
2018-06-30T02:13:49.949Z,20.30
2018-06-30T02:16:28.457Z,19.70
2018-06-30T02:19:11.868Z,20.20
2018-06-30T02:21:55.576Z,20.50
2018-06-30T02:24:35.878Z,20.40
2018-06-30T02:27:15.986Z,20.50
2018-06-30T02:29:53.503Z,20.10
2018-06-30T02:32:33.553Z,20.30
2018-06-30T02:35:11.067Z,20.40
2018-06-30T02:37:54.075Z,20.20
2018-06-30T02:40:32.441Z,20.10
2018-06-30T02:43:12.511Z,20.10
2018-06-30T02:45:52.752Z,19.90
2018-06-30T02:48:44.430Z,20.00
2018-06-30T02:51:23.961Z,19.60
2018-06-30T02:54:05.224Z,19.80
2018-06-30T02:56:42.564Z,19.90
2018-06-30T02:59:22.720Z,19.50
2018-06-30T03:02:00.925Z,19.80
2018-06-30T03:07:17.956Z,19.90
2018-06-30T03:09:58.247Z,19.60
2018-06-30T03:12:34.184Z,19.20
2018-06-30T03:15:17.088Z,19.30
2018-06-30T03:20:43.727Z,19.40
2018-06-30T03:23:18.021Z,19.30
2018-06-30T03:25:48.743Z,19.50
2018-06-30T03:28:18.498Z,19.60
2018-06-30T03:30:48.231Z,19.80
2018-06-30T03:33:18.152Z,19.80
2018-06-30T03:35:47.939Z,19.60
2018-06-30T03:38:17.769Z,19.60
2018-06-30T03:40:47.628Z,19.20
2018-06-30T03:43:18.012Z,18.90
2018-06-30T03:45:47.970Z,19.30
2018-06-30T03:48:17.913Z,19.70
2018-06-30T03:50:47.775Z,19.40
2018-06-30T03:53:17.684Z,19.20
2018-06-30T03:55:47.513Z,19.40
2018-06-30T03:58:17.400Z,19.50
2018-06-30T04:00:47.331Z,19.70
2018-06-30T04:03:17.311Z,19.80
2018-06-30T04:05:47.243Z,20.20
2018-06-30T04:08:17.217Z,20.10
2018-06-30T04:10:47.445Z,20.10
2018-06-30T04:13:17.321Z,20.30
2018-06-30T04:15:47.558Z,20.30
2018-06-30T04:18:17.329Z,20.30
2018-06-30T04:20:47.095Z,20.20
2018-06-30T04:23:17.852Z,20.00
2018-06-30T04:25:47.581Z,20.40
2018-06-30T04:28:17.427Z,20.50
2018-06-30T04:30:47.310Z,20.80
2018-06-30T04:33:17.040Z,21.20
2018-06-30T04:35:46.911Z,21.00
2018-06-30T04:38:16.652Z,21.20
2018-06-30T04:43:21.493Z,21.50
2018-06-30T04:45:51.189Z,21.90
2018-06-30T04:48:20.957Z,21.90
2018-06-30T04:56:01.106Z,22.30
2018-06-30T04:58:30.999Z,22.20
2018-06-30T05:01:00.808Z,22.30
2018-06-30T05:03:30.596Z,22.50
2018-06-30T05:06:00.405Z,22.40
2018-06-30T05:08:30.193Z,22.40
2018-06-30T05:10:59.944Z,22.40
2018-06-30T05:13:29.748Z,22.60
2018-06-30T05:15:59.515Z,22.40
2018-06-30T05:18:29.256Z,21.90
2018-06-30T05:20:59.140Z,21.70
2018-06-30T05:23:29.143Z,22.10
2018-06-30T05:25:58.933Z,22.60
2018-06-30T05:28:31.125Z,22.30
2018-06-30T05:31:00.871Z,22.70
2018-06-30T05:33:33.225Z,22.90
2018-06-30T05:36:03.555Z,23.60
2018-06-30T05:38:36.771Z,23.30
2018-06-30T05:41:07.814Z,23.60
2018-06-30T05:43:40.177Z,23.80
2018-06-30T05:46:11.150Z,23.60
2018-06-30T05:48:41.299Z,23.10
2018-06-30T05:51:11.334Z,22.80
2018-06-30T05:53:41.521Z,23.60
2018-06-30T05:56:12.365Z,23.60
2018-06-30T05:58:42.922Z,23.90
2018-06-30T06:01:13.060Z,23.70
2018-06-30T06:03:43.058Z,23.50
2018-06-30T06:06:14.608Z,24.20
2018-06-30T06:08:44.713Z,23.60
2018-06-30T06:11:17.640Z,23.10
2018-06-30T06:16:25.936Z,23.40
2018-06-30T06:19:02.479Z,24.30
2018-06-30T06:24:12.509Z,23.90
2018-06-30T06:26:43.031Z,23.70
2018-06-30T06:29:13.986Z,24.60
2018-06-30T06:31:45.804Z,24.70
2018-06-30T06:34:17.208Z,24.30
2018-06-30T06:36:48.127Z,25.10
2018-06-30T06:39:20.189Z,24.60
2018-06-30T06:41:50.019Z,24.60
2018-06-30T06:46:57.422Z,25.90
2018-06-30T06:49:27.385Z,26.40
2018-06-30T06:51:57.953Z,26.50
2018-06-30T06:54:29.113Z,26.40
2018-06-30T06:56:59.267Z,26.40
2018-06-30T06:59:30.909Z,25.80
2018-06-30T07:02:01.609Z,26.10
2018-06-30T07:04:31.367Z,25.60
2018-06-30T07:07:01.620Z,25.80
2018-06-30T07:09:34.777Z,26.00
2018-06-30T07:12:06.303Z,26.40
2018-06-30T07:14:38.096Z,26.90
2018-06-30T07:17:16.133Z,26.90
2018-06-30T07:19:46.729Z,26.80
2018-06-30T07:24:53.643Z,26.60
2018-06-30T07:27:23.564Z,26.60
2018-06-30T07:30:01.319Z,26.30
2018-06-30T07:32:31.926Z,26.20
2018-06-30T07:35:09.270Z,25.80
2018-06-30T07:37:39.785Z,26.60
2018-06-30T07:42:47.549Z,27.00
2018-06-30T07:45:18.244Z,26.50
2018-06-30T07:47:49.860Z,26.60
2018-06-30T07:50:20.783Z,26.10
2018-06-30T07:52:51.701Z,26.40
2018-06-30T07:55:21.447Z,26.30
2018-06-30T07:57:51.173Z,27.00
2018-06-30T08:00:21.036Z,27.40
2018-06-30T08:02:50.831Z,27.30
2018-06-30T08:05:20.632Z,27.30
2018-06-30T08:07:50.405Z,26.40
2018-06-30T08:10:20.270Z,26.00
2018-06-30T08:12:50.618Z,26.50
2018-06-30T08:15:21.218Z,26.60
2018-06-30T08:17:51.170Z,26.80
2018-06-30T08:20:20.933Z,27.40
2018-06-30T08:22:50.658Z,27.10
2018-06-30T08:27:56.053Z,27.60
2018-06-30T08:30:25.753Z,27.80
2018-06-30T08:32:55.444Z,27.90
2018-06-30T08:38:00.983Z,27.60
2018-06-30T08:40:30.865Z,27.80
2018-06-30T08:43:00.613Z,28.30
2018-06-30T08:48:09.570Z,27.80
2018-06-30T08:50:39.366Z,28.20
2018-06-30T08:55:45.761Z,28.20
2018-06-30T08:58:15.451Z,28.10
2018-06-30T09:00:45.264Z,27.80
2018-06-30T09:03:14.989Z,27.80
2018-06-30T09:05:44.786Z,28.00
2018-06-30T09:08:14.555Z,28.10
2018-06-30T09:10:44.712Z,28.30
2018-06-30T09:13:14.384Z,27.80
2018-06-30T09:15:44.126Z,27.40
2018-06-30T09:18:13.937Z,28.00
2018-06-30T09:20:43.706Z,28.10
2018-06-30T09:23:13.486Z,28.10
2018-06-30T09:25:43.265Z,28.00
2018-06-30T09:28:13.023Z,28.00
2018-06-30T09:30:43.251Z,28.10
2018-06-30T09:33:12.954Z,27.90
2018-06-30T09:35:42.996Z,27.80
2018-06-30T09:38:12.795Z,27.90
2018-06-30T09:40:42.612Z,27.80
2018-06-30T09:45:50.408Z,28.00
2018-06-30T09:48:21.441Z,28.00
2018-06-30T09:50:51.292Z,28.10
2018-06-30T09:53:25.276Z,28.00
2018-06-30T09:55:56.277Z,27.40
2018-06-30T09:58:28.161Z,27.70
2018-06-30T10:01:03.398Z,28.00
2018-06-30T10:03:33.096Z,27.90
2018-06-30T10:06:03.018Z,28.40
2018-06-30T10:08:33.699Z,28.30
2018-06-30T10:11:04.420Z,28.50
2018-06-30T10:13:34.462Z,28.60
2018-06-30T10:16:04.468Z,28.60
2018-06-30T10:18:34.233Z,28.80
2018-06-30T10:23:39.342Z,29.00
2018-06-30T10:26:09.168Z,29.10
2018-06-30T10:28:38.855Z,29.30
2018-06-30T10:31:08.558Z,28.90
2018-06-30T10:33:38.229Z,29.30
2018-06-30T10:36:08.953Z,29.50
2018-06-30T10:38:38.724Z,29.30
2018-06-30T10:41:08.521Z,29.40
2018-06-30T10:43:38.800Z,29.70
2018-06-30T10:46:08.468Z,30.10
2018-06-30T10:48:38.962Z,30.60
2018-06-30T10:51:09.250Z,30.00
2018-06-30T10:53:41.153Z,30.30
2018-06-30T10:56:11.218Z,30.00
2018-06-30T10:58:42.976Z,30.10
2018-06-30T11:01:15.951Z,29.90
2018-06-30T11:03:45.925Z,30.00
2018-06-30T11:06:15.662Z,29.80
2018-06-30T11:08:45.320Z,30.10
2018-06-30T11:11:18.165Z,30.50
2018-06-30T11:13:48.612Z,30.20
2018-06-30T11:16:22.753Z,30.10
2018-06-30T11:18:53.515Z,30.20
2018-06-30T11:21:26.131Z,30.30
2018-06-30T11:24:01.152Z,30.60
2018-06-30T11:26:31.811Z,30.80
2018-06-30T11:29:02.754Z,30.80
2018-06-30T11:31:33.495Z,30.70
2018-06-30T11:34:04.660Z,30.70
2018-06-30T11:36:34.759Z,30.50
2018-06-30T11:39:10.350Z,30.70
2018-06-30T11:41:40.240Z,30.90
2018-06-30T11:44:10.325Z,30.60
2018-06-30T11:46:41.579Z,29.90
2018-06-30T11:49:12.244Z,30.00
2018-06-30T11:51:43.549Z,29.90
2018-06-30T11:54:14.572Z,29.90
2018-06-30T11:56:46.020Z,29.60
2018-06-30T11:59:16.612Z,29.70
2018-06-30T12:01:46.980Z,29.60
2018-06-30T12:04:17.787Z,30.00
2018-06-30T12:06:49.407Z,30.40
2018-06-30T12:09:20.335Z,30.40
2018-06-30T12:11:50.866Z,29.20
2018-06-30T12:14:20.780Z,28.50
2018-06-30T12:16:50.527Z,28.80
2018-06-30T12:19:20.209Z,29.30
2018-06-30T12:21:49.985Z,29.10
2018-06-30T12:24:19.781Z,29.60
2018-06-30T12:26:49.641Z,29.90
2018-06-30T12:29:19.407Z,30.20
2018-06-30T12:31:49.202Z,30.70
2018-06-30T12:34:19.719Z,30.20
2018-06-30T12:36:49.434Z,30.30
2018-06-30T12:39:19.236Z,29.40
2018-06-30T12:41:49.089Z,29.50
2018-06-30T12:44:18.755Z,29.70
2018-06-30T12:46:48.623Z,29.60
2018-06-30T12:51:54.017Z,27.80
2018-06-30T12:54:23.998Z,27.70
2018-06-30T12:56:53.636Z,27.30
2018-06-30T12:59:23.318Z,26.60
2018-06-30T13:01:53.072Z,26.20
2018-06-30T13:06:58.774Z,25.90
2018-06-30T13:09:28.585Z,26.20
2018-06-30T13:11:58.298Z,26.40
2018-06-30T13:14:27.980Z,26.50
2018-06-30T13:16:57.832Z,26.80
2018-06-30T13:19:27.726Z,26.50
2018-06-30T13:21:57.566Z,26.10
2018-06-30T13:24:27.497Z,26.10
2018-06-30T13:26:57.217Z,26.10
2018-06-30T13:29:27.028Z,26.20
2018-06-30T13:31:57.704Z,26.50
2018-06-30T13:34:27.516Z,27.10
2018-06-30T13:36:57.160Z,27.30
2018-06-30T13:39:26.910Z,27.30
2018-06-30T13:41:56.657Z,27.60
2018-06-30T13:44:26.534Z,27.50
2018-06-30T13:46:56.258Z,27.30
2018-06-30T13:49:26.130Z,27.10
2018-06-30T13:51:56.071Z,27.00
2018-06-30T13:54:25.712Z,26.90
2018-06-30T13:56:55.456Z,27.50
2018-06-30T13:59:25.169Z,27.50
2018-06-30T14:01:54.940Z,27.50
2018-06-30T14:04:24.765Z,26.90
2018-06-30T14:06:54.591Z,26.70
2018-06-30T14:09:24.283Z,26.80
2018-06-30T14:11:54.028Z,27.10
2018-06-30T14:14:24.063Z,27.20
2018-06-30T14:16:54.748Z,27.10
2018-06-30T14:19:24.594Z,26.80
2018-06-30T14:21:54.401Z,26.50
2018-06-30T14:24:25.198Z,26.30
2018-06-30T14:26:54.966Z,26.20
2018-06-30T14:32:00.077Z,26.50
2018-06-30T14:34:30.220Z,26.40
2018-06-30T14:37:00.002Z,26.90
2018-06-30T14:39:29.702Z,26.80
2018-06-30T14:41:59.481Z,26.80
2018-06-30T14:44:30.964Z,26.20
2018-06-30T14:47:01.068Z,26.30
2018-06-30T14:49:31.081Z,26.40
2018-06-30T14:52:00.808Z,26.60
2018-06-30T14:54:30.953Z,27.00
2018-06-30T14:57:00.724Z,27.10
2018-06-30T14:59:30.713Z,26.50
2018-06-30T15:02:00.678Z,26.00
2018-06-30T15:04:30.455Z,26.00
2018-06-30T15:07:00.354Z,25.90
2018-06-30T15:09:30.265Z,26.00
2018-06-30T15:14:35.808Z,25.90
2018-06-30T15:17:05.787Z,25.80
2018-06-30T15:19:35.692Z,25.90
2018-06-30T15:22:05.559Z,26.50
2018-06-30T15:24:35.367Z,26.30
2018-06-30T15:29:40.502Z,25.80
2018-06-30T15:32:10.197Z,25.90
2018-06-30T15:34:39.959Z,25.90
2018-06-30T15:37:09.862Z,25.90
2018-06-30T15:39:39.635Z,26.10
2018-06-30T15:42:09.328Z,26.10
2018-06-30T15:44:42.421Z,25.80
2018-06-30T15:47:12.222Z,25.70
2018-06-30T15:49:41.919Z,25.80
2018-06-30T15:52:11.796Z,25.70
2018-06-30T15:54:41.631Z,26.10
2018-06-30T15:57:14.995Z,25.70
2018-06-30T15:59:44.727Z,25.80
2018-06-30T16:02:14.594Z,26.10
2018-06-30T16:04:44.544Z,25.70
2018-06-30T16:07:14.338Z,25.90
2018-06-30T16:09:44.141Z,25.90
2018-06-30T16:12:13.893Z,25.60
2018-06-30T16:14:43.720Z,25.70
2018-06-30T16:17:13.440Z,25.80
2018-06-30T16:19:43.296Z,25.60
2018-06-30T16:22:13.074Z,25.80
2018-06-30T16:24:43.152Z,25.80
2018-06-30T16:27:12.868Z,25.70
2018-06-30T16:29:42.655Z,25.70
2018-06-30T16:32:12.534Z,25.60
2018-06-30T16:34:42.400Z,25.50
2018-06-30T16:37:12.293Z,25.50
2018-06-30T16:39:42.100Z,25.40
2018-06-30T16:42:12.293Z,25.30
2018-06-30T16:44:42.115Z,25.10
2018-06-30T16:47:11.873Z,25.30
2018-06-30T16:49:41.856Z,25.20
2018-06-30T16:52:11.794Z,25.30
2018-06-30T16:54:41.667Z,25.40
2018-06-30T16:57:11.355Z,25.40
2018-06-30T16:59:41.099Z,25.40
2018-06-30T17:02:10.904Z,25.30
2018-06-30T17:04:40.737Z,25.60
2018-06-30T17:07:10.575Z,25.30
2018-06-30T17:09:40.355Z,25.50
2018-06-30T17:12:10.090Z,25.60
2018-06-30T17:14:39.785Z,25.60
2018-06-30T17:17:09.559Z,25.40
2018-06-30T17:19:39.401Z,25.00
2018-06-30T17:22:09.114Z,25.10
2018-06-30T17:24:38.963Z,25.10
2018-06-30T17:27:08.880Z,25.20
2018-06-30T17:29:38.701Z,25.10
2018-06-30T17:32:08.577Z,25.10
2018-06-30T17:34:38.313Z,24.80
2018-06-30T17:37:08.192Z,24.70
2018-06-30T17:39:37.933Z,23.80
2018-06-30T17:42:07.638Z,24.20
2018-06-30T17:44:37.473Z,24.40
2018-06-30T17:47:07.210Z,24.50
2018-06-30T17:49:36.981Z,24.30
2018-06-30T17:52:06.718Z,23.70
2018-06-30T17:54:36.590Z,23.60
2018-06-30T17:57:06.368Z,23.30
2018-06-30T17:59:36.168Z,23.10
2018-06-30T18:02:06.047Z,23.00
2018-06-30T18:04:35.888Z,23.10
2018-06-30T18:07:05.642Z,23.30
2018-06-30T18:09:35.486Z,23.60
2018-06-30T18:12:05.243Z,23.60
2018-06-30T18:14:34.950Z,23.30
2018-06-30T18:17:04.777Z,23.20
2018-06-30T18:19:34.533Z,23.10
2018-06-30T18:22:04.313Z,22.70
2018-06-30T18:24:34.111Z,22.70
2018-06-30T18:27:03.801Z,22.50
2018-06-30T18:29:33.711Z,22.40
2018-06-30T18:32:03.617Z,22.80
2018-06-30T18:34:33.459Z,22.80
2018-06-30T18:37:03.201Z,23.00
2018-06-30T18:39:33.021Z,23.30
2018-06-30T18:42:03.173Z,23.10
2018-06-30T18:44:33.184Z,22.70
2018-06-30T18:47:03.640Z,22.50
2018-06-30T18:49:33.569Z,22.60
2018-06-30T18:52:03.323Z,22.80
2018-06-30T18:54:39.510Z,22.80
2018-06-30T18:57:09.363Z,22.50
2018-06-30T18:59:39.119Z,22.40
2018-06-30T19:02:08.937Z,22.30
2018-06-30T19:04:38.741Z,22.20
2018-06-30T19:07:08.668Z,22.50
2018-06-30T19:09:38.468Z,22.60
2018-06-30T19:12:08.348Z,22.70
2018-06-30T19:14:38.286Z,22.40
2018-06-30T19:17:08.253Z,22.40
2018-06-30T19:19:38.188Z,22.30
2018-06-30T19:22:07.972Z,22.10
2018-06-30T19:24:37.777Z,22.30
2018-06-30T19:27:07.518Z,22.20
2018-06-30T19:29:37.433Z,22.20
2018-06-30T19:32:07.206Z,22.40
2018-06-30T19:34:38.108Z,22.20
2018-06-30T19:37:07.942Z,22.10
2018-06-30T19:39:37.765Z,22.10
2018-06-30T19:44:42.430Z,21.60
2018-06-30T19:47:12.248Z,21.80
2018-06-30T19:49:41.967Z,22.00
2018-06-30T19:52:11.902Z,21.90
2018-06-30T19:54:42.361Z,22.10
2018-06-30T19:59:47.332Z,21.90
2018-06-30T20:02:17.560Z,21.70
2018-06-30T20:04:47.579Z,21.10
2018-06-30T20:07:17.386Z,20.80
2018-06-30T20:09:47.198Z,21.10
2018-06-30T20:12:16.998Z,21.20
2018-06-30T20:14:46.792Z,21.50
2018-06-30T20:17:16.604Z,21.30
2018-06-30T20:19:46.363Z,21.20
2018-06-30T20:22:16.320Z,21.00
2018-06-30T20:24:46.418Z,20.80
2018-06-30T20:29:51.821Z,20.70
2018-06-30T20:32:21.781Z,20.80
2018-06-30T20:34:51.748Z,20.60
2018-06-30T20:37:21.532Z,20.70
2018-06-30T20:39:51.495Z,20.80
2018-06-30T20:42:21.392Z,21.00
2018-06-30T20:44:51.211Z,20.90
2018-06-30T20:47:21.634Z,20.90
2018-06-30T20:49:51.571Z,20.80
2018-06-30T20:52:21.602Z,20.70
2018-06-30T20:54:51.553Z,20.60
2018-06-30T20:57:21.418Z,20.50
2018-06-30T20:59:51.222Z,20.20
2018-06-30T21:02:20.971Z,20.10
2018-06-30T21:04:50.733Z,20.20
2018-06-30T21:07:20.588Z,20.00
2018-06-30T21:09:50.684Z,20.10
2018-06-30T21:12:20.560Z,19.90
2018-06-30T21:14:51.097Z,20.00
2018-06-30T21:17:20.879Z,20.10
2018-06-30T21:19:50.872Z,19.90
2018-06-30T21:22:20.726Z,20.00
2018-06-30T21:24:50.795Z,19.90
2018-06-30T21:27:20.734Z,20.20
2018-06-30T21:29:50.648Z,20.40
2018-06-30T21:32:20.757Z,20.20
2018-06-30T21:34:50.556Z,19.80
2018-06-30T21:37:20.376Z,20.00
2018-06-30T21:39:50.117Z,19.60
2018-06-30T21:42:19.986Z,19.90
2018-06-30T21:44:48.805Z,19.80
2018-06-30T21:47:18.378Z,19.80
2018-06-30T21:49:48.261Z,19.80
2018-06-30T21:52:18.100Z,19.90
2018-06-30T21:54:47.859Z,19.90
2018-06-30T21:57:17.654Z,19.20
2018-06-30T21:59:47.412Z,19.20
2018-06-30T22:02:17.190Z,19.20
2018-06-30T22:04:46.912Z,19.30
2018-06-30T22:07:22.968Z,19.00
2018-06-30T22:09:52.856Z,19.00
2018-06-30T22:12:22.808Z,19.10
2018-06-30T22:14:52.661Z,19.10
2018-06-30T22:17:22.489Z,19.30
2018-06-30T22:19:52.311Z,19.30
2018-06-30T22:22:22.078Z,19.00
2018-06-30T22:24:51.936Z,19.20
2018-06-30T22:27:21.684Z,19.20
2018-06-30T22:29:51.496Z,18.80
2018-06-30T22:32:21.320Z,18.90
2018-06-30T22:34:51.012Z,19.20
2018-06-30T22:37:20.883Z,19.10
2018-06-30T22:42:37.339Z,19.10
2018-06-30T22:45:07.184Z,19.00
2018-06-30T22:47:37.023Z,18.90
2018-06-30T22:50:07.191Z,18.60
2018-06-30T22:52:37.436Z,18.80
2018-06-30T22:55:11.202Z,18.70
2018-06-30T22:57:41.105Z,18.70
2018-06-30T23:00:12.068Z,18.80
2018-06-30T23:02:41.560Z,18.90
2018-06-30T23:05:11.349Z,18.70
2018-06-30T23:07:41.058Z,18.70
2018-06-30T23:10:12.379Z,18.70
2018-06-30T23:12:42.687Z,18.70
2018-06-30T23:15:12.804Z,18.50
2018-06-30T23:17:42.595Z,18.60
2018-06-30T23:20:12.364Z,18.60
2018-06-30T23:22:58.490Z,18.50
2018-06-30T23:25:29.529Z,18.60
2018-06-30T23:27:59.738Z,18.70
2018-06-30T23:30:30.022Z,18.60
2018-06-30T23:32:59.850Z,18.60
2018-06-30T23:35:30.521Z,18.70
2018-06-30T23:38:01.062Z,18.70
2018-06-30T23:40:30.785Z,18.60
2018-06-30T23:43:00.548Z,18.60
2018-06-30T23:45:30.272Z,18.40
2018-06-30T23:48:00.036Z,18.10
2018-06-30T23:50:29.922Z,18.40
2018-06-30T23:52:59.759Z,18.50
2018-06-30T23:55:29.576Z,18.30
2018-06-30T23:57:59.411Z,18.10
